sensor_id;sensor_type;location;lat;lon;timestamp;P1;durP1;ratioP1;P2;durP2;ratioP2
72920;SDS011;61064;51.654;5.476;2023-08-24T00:01:10;9.20;;;3.92;;
72920;SDS011;61064;51.654;5.476;2023-08-24T00:03:37;10.07;;;4.03;;
72920;SDS011;61064;51.654;5.476;2023-08-24T00:06:03;10.00;;;4.15;;
72920;SDS011;61064;51.654;5.476;2023-08-24T00:08:28;10.33;;;4.20;;
72920;SDS011;61064;51.654;5.476;2023-08-24T00:10:54;8.63;;;3.83;;
72920;SDS011;61064;51.654;5.476;2023-08-24T00:13:19;9.30;;;3.87;;
72920;SDS011;61064;51.654;5.476;2023-08-24T00:15:45;8.90;;;4.05;;
72920;SDS011;61064;51.654;5.476;2023-08-24T00:18:10;9.93;;;4.20;;
72920;SDS011;61064;51.654;5.476;2023-08-24T00:20:35;10.00;;;3.93;;
72920;SDS011;61064;51.654;5.476;2023-08-24T00:23:02;11.27;;;4.45;;
72920;SDS011;61064;51.654;5.476;2023-08-24T00:25:28;9.17;;;4.10;;
72920;SDS011;61064;51.654;5.476;2023-08-24T00:27:53;9.80;;;4.35;;
72920;SDS011;61064;51.654;5.476;2023-08-24T00:30:19;10.07;;;3.97;;
72920;SDS011;61064;51.654;5.476;2023-08-24T00:32:45;10.07;;;3.90;;
72920;SDS011;61064;51.654;5.476;2023-08-24T00:35:10;11.60;;;4.07;;
72920;SDS011;61064;51.654;5.476;2023-08-24T00:37:36;10.57;;;4.30;;
72920;SDS011;61064;51.654;5.476;2023-08-24T00:40:05;9.83;;;3.70;;
72920;SDS011;61064;51.654;5.476;2023-08-24T00:42:41;8.93;;;4.00;;
72920;SDS011;61064;51.654;5.476;2023-08-24T00:45:08;8.25;;;4.00;;
72920;SDS011;61064;51.654;5.476;2023-08-24T00:47:34;9.13;;;4.13;;
72920;SDS011;61064;51.654;5.476;2023-08-24T00:50:01;7.68;;;4.10;;
72920;SDS011;61064;51.654;5.476;2023-08-24T00:52:28;9.37;;;3.70;;
72920;SDS011;61064;51.654;5.476;2023-08-24T00:54:56;9.88;;;4.20;;
72920;SDS011;61064;51.654;5.476;2023-08-24T00:57:21;9.73;;;4.30;;
72920;SDS011;61064;51.654;5.476;2023-08-24T00:59:47;8.68;;;3.70;;
72920;SDS011;61064;51.654;5.476;2023-08-24T01:02:13;9.88;;;4.13;;
72920;SDS011;61064;51.654;5.476;2023-08-24T01:04:40;9.10;;;4.00;;
72920;SDS011;61064;51.654;5.476;2023-08-24T01:07:06;8.35;;;3.60;;
72920;SDS011;61064;51.654;5.476;2023-08-24T01:09:33;9.18;;;3.92;;
72920;SDS011;61064;51.654;5.476;2023-08-24T01:14:46;11.20;;;4.00;;
72920;SDS011;61064;51.654;5.476;2023-08-24T01:17:24;11.30;;;3.85;;
72920;SDS011;61064;51.654;5.476;2023-08-24T01:19:54;8.57;;;4.00;;
72920;SDS011;61064;51.654;5.476;2023-08-24T01:25:05;8.63;;;4.00;;
72920;SDS011;61064;51.654;5.476;2023-08-24T01:27:42;8.60;;;3.88;;
72920;SDS011;61064;51.654;5.476;2023-08-24T01:30:08;10.02;;;3.90;;
72920;SDS011;61064;51.654;5.476;2023-08-24T01:32:35;7.57;;;3.57;;
72920;SDS011;61064;51.654;5.476;2023-08-24T01:35:02;9.02;;;4.15;;
72920;SDS011;61064;51.654;5.476;2023-08-24T01:37:35;9.85;;;4.20;;
72920;SDS011;61064;51.654;5.476;2023-08-24T01:43:10;8.93;;;4.15;;
72920;SDS011;61064;51.654;5.476;2023-08-24T01:45:38;10.07;;;4.00;;
72920;SDS011;61064;51.654;5.476;2023-08-24T01:48:06;9.40;;;4.35;;
72920;SDS011;61064;51.654;5.476;2023-08-24T01:50:33;11.07;;;4.15;;
72920;SDS011;61064;51.654;5.476;2023-08-24T01:52:59;10.55;;;4.55;;
72920;SDS011;61064;51.654;5.476;2023-08-24T01:55:25;10.13;;;4.38;;
72920;SDS011;61064;51.654;5.476;2023-08-24T01:57:51;13.57;;;4.67;;
72920;SDS011;61064;51.654;5.476;2023-08-24T02:00:16;8.83;;;4.17;;
72920;SDS011;61064;51.654;5.476;2023-08-24T02:02:42;12.87;;;4.93;;
72920;SDS011;61064;51.654;5.476;2023-08-24T02:05:11;9.65;;;4.20;;
72920;SDS011;61064;51.654;5.476;2023-08-24T02:07:38;10.97;;;4.40;;
72920;SDS011;61064;51.654;5.476;2023-08-24T02:10:05;10.10;;;4.43;;
72920;SDS011;61064;51.654;5.476;2023-08-24T02:12:30;8.32;;;4.32;;
72920;SDS011;61064;51.654;5.476;2023-08-24T02:14:56;10.87;;;4.17;;
72920;SDS011;61064;51.654;5.476;2023-08-24T02:17:21;9.80;;;4.40;;
72920;SDS011;61064;51.654;5.476;2023-08-24T02:19:46;9.77;;;4.63;;
72920;SDS011;61064;51.654;5.476;2023-08-24T02:22:12;9.87;;;4.40;;
72920;SDS011;61064;51.654;5.476;2023-08-24T02:24:37;10.32;;;4.32;;
72920;SDS011;61064;51.654;5.476;2023-08-24T02:27:02;8.37;;;4.10;;
72920;SDS011;61064;51.654;5.476;2023-08-24T02:29:28;9.23;;;4.00;;
72920;SDS011;61064;51.654;5.476;2023-08-24T02:31:55;9.65;;;4.22;;
72920;SDS011;61064;51.654;5.476;2023-08-24T02:34:20;8.70;;;4.17;;
72920;SDS011;61064;51.654;5.476;2023-08-24T02:36:48;10.93;;;4.50;;
72920;SDS011;61064;51.654;5.476;2023-08-24T02:39:14;12.82;;;4.40;;
72920;SDS011;61064;51.654;5.476;2023-08-24T02:41:39;11.03;;;5.00;;
72920;SDS011;61064;51.654;5.476;2023-08-24T02:44:05;10.07;;;4.95;;
72920;SDS011;61064;51.654;5.476;2023-08-24T02:46:30;10.07;;;5.03;;
72920;SDS011;61064;51.654;5.476;2023-08-24T02:48:56;11.47;;;4.83;;
72920;SDS011;61064;51.654;5.476;2023-08-24T02:51:22;12.93;;;5.23;;
72920;SDS011;61064;51.654;5.476;2023-08-24T02:53:48;13.40;;;4.97;;
72920;SDS011;61064;51.654;5.476;2023-08-24T02:56:14;12.57;;;5.47;;
72920;SDS011;61064;51.654;5.476;2023-08-24T02:58:39;11.23;;;5.80;;
72920;SDS011;61064;51.654;5.476;2023-08-24T03:01:05;12.93;;;5.43;;
72920;SDS011;61064;51.654;5.476;2023-08-24T03:03:32;8.87;;;5.10;;
72920;SDS011;61064;51.654;5.476;2023-08-24T03:06:01;11.63;;;5.75;;
72920;SDS011;61064;51.654;5.476;2023-08-24T03:08:31;11.45;;;5.80;;
72920;SDS011;61064;51.654;5.476;2023-08-24T03:10:58;12.35;;;5.90;;
72920;SDS011;61064;51.654;5.476;2023-08-24T03:13:24;14.47;;;5.67;;
72920;SDS011;61064;51.654;5.476;2023-08-24T03:15:50;13.32;;;6.22;;
72920;SDS011;61064;51.654;5.476;2023-08-24T03:18:17;12.15;;;6.22;;
72920;SDS011;61064;51.654;5.476;2023-08-24T03:20:44;13.77;;;6.43;;
72920;SDS011;61064;51.654;5.476;2023-08-24T03:23:11;11.07;;;6.33;;
72920;SDS011;61064;51.654;5.476;2023-08-24T03:25:36;17.70;;;7.20;;
72920;SDS011;61064;51.654;5.476;2023-08-24T03:28:07;17.27;;;7.32;;
72920;SDS011;61064;51.654;5.476;2023-08-24T03:30:35;12.30;;;6.70;;
72920;SDS011;61064;51.654;5.476;2023-08-24T03:33:01;15.52;;;8.02;;
72920;SDS011;61064;51.654;5.476;2023-08-24T03:35:28;16.77;;;8.27;;
72920;SDS011;61064;51.654;5.476;2023-08-24T03:37:56;16.50;;;8.18;;
72920;SDS011;61064;51.654;5.476;2023-08-24T03:40:22;17.33;;;8.10;;
72920;SDS011;61064;51.654;5.476;2023-08-24T03:42:47;16.60;;;8.83;;
72920;SDS011;61064;51.654;5.476;2023-08-24T03:45:13;16.70;;;8.17;;
72920;SDS011;61064;51.654;5.476;2023-08-24T03:47:38;15.60;;;8.40;;
72920;SDS011;61064;51.654;5.476;2023-08-24T03:50:03;15.77;;;8.43;;
72920;SDS011;61064;51.654;5.476;2023-08-24T03:52:29;16.83;;;8.80;;
72920;SDS011;61064;51.654;5.476;2023-08-24T03:54:55;14.35;;;8.13;;
72920;SDS011;61064;51.654;5.476;2023-08-24T03:57:20;15.87;;;8.53;;
72920;SDS011;61064;51.654;5.476;2023-08-24T03:59:46;15.77;;;8.27;;
72920;SDS011;61064;51.654;5.476;2023-08-24T04:02:12;16.90;;;8.00;;
72920;SDS011;61064;51.654;5.476;2023-08-24T04:04:37;16.87;;;8.70;;
72920;SDS011;61064;51.654;5.476;2023-08-24T04:07:02;16.10;;;8.50;;
72920;SDS011;61064;51.654;5.476;2023-08-24T04:09:28;17.23;;;8.43;;
72920;SDS011;61064;51.654;5.476;2023-08-24T04:11:53;18.57;;;8.33;;
72920;SDS011;61064;51.654;5.476;2023-08-24T04:14:19;14.10;;;8.20;;
72920;SDS011;61064;51.654;5.476;2023-08-24T04:16:44;18.20;;;9.07;;
72920;SDS011;61064;51.654;5.476;2023-08-24T04:19:12;15.88;;;9.18;;
72920;SDS011;61064;51.654;5.476;2023-08-24T04:21:38;17.63;;;9.67;;
72920;SDS011;61064;51.654;5.476;2023-08-24T04:24:03;16.43;;;9.60;;
72920;SDS011;61064;51.654;5.476;2023-08-24T04:26:29;17.65;;;9.93;;
72920;SDS011;61064;51.654;5.476;2023-08-24T04:28:55;18.30;;;9.40;;
72920;SDS011;61064;51.654;5.476;2023-08-24T04:31:20;20.13;;;10.37;;
72920;SDS011;61064;51.654;5.476;2023-08-24T04:33:45;17.97;;;10.47;;
72920;SDS011;61064;51.654;5.476;2023-08-24T04:36:11;19.65;;;9.90;;
72920;SDS011;61064;51.654;5.476;2023-08-24T04:38:36;21.23;;;10.43;;
72920;SDS011;61064;51.654;5.476;2023-08-24T04:41:02;19.70;;;10.50;;
72920;SDS011;61064;51.654;5.476;2023-08-24T04:43:32;19.35;;;10.65;;
72920;SDS011;61064;51.654;5.476;2023-08-24T04:45:57;22.90;;;10.30;;
72920;SDS011;61064;51.654;5.476;2023-08-24T04:48:23;18.43;;;10.40;;
72920;SDS011;61064;51.654;5.476;2023-08-24T04:50:51;22.58;;;11.38;;
72920;SDS011;61064;51.654;5.476;2023-08-24T04:53:17;19.05;;;10.95;;
72920;SDS011;61064;51.654;5.476;2023-08-24T04:55:43;20.80;;;11.23;;
72920;SDS011;61064;51.654;5.476;2023-08-24T04:58:11;16.53;;;10.23;;
72920;SDS011;61064;51.654;5.476;2023-08-24T05:00:37;21.33;;;10.88;;
72920;SDS011;61064;51.654;5.476;2023-08-24T05:03:06;23.45;;;11.23;;
72920;SDS011;61064;51.654;5.476;2023-08-24T05:05:32;19.55;;;11.48;;
72920;SDS011;61064;51.654;5.476;2023-08-24T05:07:59;18.20;;;10.60;;
72920;SDS011;61064;51.654;5.476;2023-08-24T05:10:25;20.65;;;12.05;;
72920;SDS011;61064;51.654;5.476;2023-08-24T05:12:54;21.90;;;10.55;;
72920;SDS011;61064;51.654;5.476;2023-08-24T05:15:20;21.07;;;11.13;;
72920;SDS011;61064;51.654;5.476;2023-08-24T05:17:45;19.10;;;11.27;;
72920;SDS011;61064;51.654;5.476;2023-08-24T05:20:11;21.55;;;11.23;;
72920;SDS011;61064;51.654;5.476;2023-08-24T05:22:37;23.53;;;11.90;;
72920;SDS011;61064;51.654;5.476;2023-08-24T05:25:02;21.90;;;12.13;;
72920;SDS011;61064;51.654;5.476;2023-08-24T05:27:28;20.80;;;12.33;;
72920;SDS011;61064;51.654;5.476;2023-08-24T05:29:53;23.27;;;11.87;;
72920;SDS011;61064;51.654;5.476;2023-08-24T05:32:19;22.33;;;11.98;;
72920;SDS011;61064;51.654;5.476;2023-08-24T05:34:44;19.60;;;11.70;;
72920;SDS011;61064;51.654;5.476;2023-08-24T05:37:10;20.95;;;12.88;;
72920;SDS011;61064;51.654;5.476;2023-08-24T05:39:35;22.13;;;12.60;;
72920;SDS011;61064;51.654;5.476;2023-08-24T05:42:01;23.50;;;12.30;;
72920;SDS011;61064;51.654;5.476;2023-08-24T05:44:26;22.80;;;12.50;;
72920;SDS011;61064;51.654;5.476;2023-08-24T05:46:51;24.17;;;12.60;;
72920;SDS011;61064;51.654;5.476;2023-08-24T05:49:17;20.80;;;13.03;;
72920;SDS011;61064;51.654;5.476;2023-08-24T05:51:42;23.95;;;12.98;;
72920;SDS011;61064;51.654;5.476;2023-08-24T05:54:08;22.20;;;13.23;;
72920;SDS011;61064;51.654;5.476;2023-08-24T05:56:34;22.85;;;13.25;;
72920;SDS011;61064;51.654;5.476;2023-08-24T05:58:59;21.67;;;13.47;;
72920;SDS011;61064;51.654;5.476;2023-08-24T06:01:25;22.07;;;12.70;;
72920;SDS011;61064;51.654;5.476;2023-08-24T06:03:50;25.63;;;13.57;;
72920;SDS011;61064;51.654;5.476;2023-08-24T06:06:16;22.73;;;13.05;;
72920;SDS011;61064;51.654;5.476;2023-08-24T06:08:42;23.47;;;12.97;;
72920;SDS011;61064;51.654;5.476;2023-08-24T06:11:08;22.75;;;12.60;;
72920;SDS011;61064;51.654;5.476;2023-08-24T06:13:33;21.35;;;13.05;;
72920;SDS011;61064;51.654;5.476;2023-08-24T06:15:59;20.90;;;13.47;;
72920;SDS011;61064;51.654;5.476;2023-08-24T06:18:25;21.40;;;12.90;;
72920;SDS011;61064;51.654;5.476;2023-08-24T06:20:50;21.07;;;13.47;;
72920;SDS011;61064;51.654;5.476;2023-08-24T06:23:16;22.43;;;13.00;;
72920;SDS011;61064;51.654;5.476;2023-08-24T06:25:42;22.60;;;13.00;;
72920;SDS011;61064;51.654;5.476;2023-08-24T06:28:07;20.67;;;12.10;;
72920;SDS011;61064;51.654;5.476;2023-08-24T06:30:36;21.02;;;12.85;;
72920;SDS011;61064;51.654;5.476;2023-08-24T06:33:06;22.13;;;12.00;;
72920;SDS011;61064;51.654;5.476;2023-08-24T06:35:35;20.77;;;12.57;;
72920;SDS011;61064;51.654;5.476;2023-08-24T06:38:01;21.40;;;12.20;;
72920;SDS011;61064;51.654;5.476;2023-08-24T06:40:27;20.20;;;12.10;;
72920;SDS011;61064;51.654;5.476;2023-08-24T06:42:53;20.90;;;12.75;;
72920;SDS011;61064;51.654;5.476;2023-08-24T06:45:19;18.35;;;12.30;;
72920;SDS011;61064;51.654;5.476;2023-08-24T06:47:44;21.87;;;12.60;;
72920;SDS011;61064;51.654;5.476;2023-08-24T06:50:10;18.07;;;12.23;;
72920;SDS011;61064;51.654;5.476;2023-08-24T06:52:36;22.45;;;13.07;;
72920;SDS011;61064;51.654;5.476;2023-08-24T06:55:01;21.20;;;12.63;;
72920;SDS011;61064;51.654;5.476;2023-08-24T06:57:28;20.10;;;12.73;;
72920;SDS011;61064;51.654;5.476;2023-08-24T06:59:53;21.27;;;13.33;;
72920;SDS011;61064;51.654;5.476;2023-08-24T07:02:19;20.23;;;13.03;;
72920;SDS011;61064;51.654;5.476;2023-08-24T07:04:44;18.47;;;12.40;;
72920;SDS011;61064;51.654;5.476;2023-08-24T07:07:10;21.03;;;12.50;;
72920;SDS011;61064;51.654;5.476;2023-08-24T07:09:35;21.83;;;13.17;;
72920;SDS011;61064;51.654;5.476;2023-08-24T07:12:01;18.30;;;12.07;;
72920;SDS011;61064;51.654;5.476;2023-08-24T07:14:32;19.60;;;12.40;;
72920;SDS011;61064;51.654;5.476;2023-08-24T07:16:58;20.13;;;12.88;;
72920;SDS011;61064;51.654;5.476;2023-08-24T07:19:23;20.43;;;12.67;;
72920;SDS011;61064;51.654;5.476;2023-08-24T07:21:49;19.08;;;12.60;;
72920;SDS011;61064;51.654;5.476;2023-08-24T07:24:14;19.53;;;12.60;;
72920;SDS011;61064;51.654;5.476;2023-08-24T07:26:40;19.63;;;11.83;;
72920;SDS011;61064;51.654;5.476;2023-08-24T07:29:08;20.05;;;12.30;;
72920;SDS011;61064;51.654;5.476;2023-08-24T07:31:34;18.17;;;12.23;;
72920;SDS011;61064;51.654;5.476;2023-08-24T07:34:01;20.70;;;12.45;;
72920;SDS011;61064;51.654;5.476;2023-08-24T07:36:28;18.73;;;11.68;;
72920;SDS011;61064;51.654;5.476;2023-08-24T07:38:53;19.53;;;11.77;;
72920;SDS011;61064;51.654;5.476;2023-08-24T07:41:19;19.07;;;11.47;;
72920;SDS011;61064;51.654;5.476;2023-08-24T07:43:44;17.30;;;11.00;;
72920;SDS011;61064;51.654;5.476;2023-08-24T07:46:09;16.63;;;11.53;;
72920;SDS011;61064;51.654;5.476;2023-08-24T07:48:35;17.57;;;11.67;;
72920;SDS011;61064;51.654;5.476;2023-08-24T07:51:01;17.52;;;10.95;;
72920;SDS011;61064;51.654;5.476;2023-08-24T07:53:26;16.60;;;10.97;;
72920;SDS011;61064;51.654;5.476;2023-08-24T07:55:53;17.80;;;11.55;;
72920;SDS011;61064;51.654;5.476;2023-08-24T07:58:21;17.13;;;10.93;;
72920;SDS011;61064;51.654;5.476;2023-08-24T08:00:48;17.03;;;10.07;;
72920;SDS011;61064;51.654;5.476;2023-08-24T08:03:14;15.75;;;10.02;;
72920;SDS011;61064;51.654;5.476;2023-08-24T08:05:40;17.90;;;9.97;;
72920;SDS011;61064;51.654;5.476;2023-08-24T08:08:05;18.00;;;9.93;;
72920;SDS011;61064;51.654;5.476;2023-08-24T08:10:31;14.60;;;9.63;;
72920;SDS011;61064;51.654;5.476;2023-08-24T08:12:56;16.83;;;9.20;;
72920;SDS011;61064;51.654;5.476;2023-08-24T08:15:21;19.83;;;9.63;;
72920;SDS011;61064;51.654;5.476;2023-08-24T08:17:47;16.40;;;9.37;;
72920;SDS011;61064;51.654;5.476;2023-08-24T08:20:13;15.07;;;8.65;;
72920;SDS011;61064;51.654;5.476;2023-08-24T08:22:40;15.73;;;9.25;;
72920;SDS011;61064;51.654;5.476;2023-08-24T08:25:05;17.23;;;10.07;;
72920;SDS011;61064;51.654;5.476;2023-08-24T08:27:31;19.23;;;10.32;;
72920;SDS011;61064;51.654;5.476;2023-08-24T08:29:58;17.52;;;10.20;;
72920;SDS011;61064;51.654;5.476;2023-08-24T08:32:23;18.57;;;10.17;;
72920;SDS011;61064;51.654;5.476;2023-08-24T08:34:52;16.73;;;9.63;;
72920;SDS011;61064;51.654;5.476;2023-08-24T08:37:18;17.53;;;10.70;;
72920;SDS011;61064;51.654;5.476;2023-08-24T08:39:43;16.98;;;10.25;;
72920;SDS011;61064;51.654;5.476;2023-08-24T08:42:13;18.50;;;10.20;;
72920;SDS011;61064;51.654;5.476;2023-08-24T08:44:39;16.60;;;10.10;;
72920;SDS011;61064;51.654;5.476;2023-08-24T08:47:08;17.60;;;11.98;;
72920;SDS011;61064;51.654;5.476;2023-08-24T08:49:36;21.05;;;12.90;;
72920;SDS011;61064;51.654;5.476;2023-08-24T08:52:03;18.90;;;11.45;;
72920;SDS011;61064;51.654;5.476;2023-08-24T08:54:30;19.80;;;12.30;;
72920;SDS011;61064;51.654;5.476;2023-08-24T08:56:56;17.83;;;12.03;;
72920;SDS011;61064;51.654;5.476;2023-08-24T08:59:22;17.77;;;12.95;;
72920;SDS011;61064;51.654;5.476;2023-08-24T09:01:48;20.02;;;12.90;;
72920;SDS011;61064;51.654;5.476;2023-08-24T09:04:15;18.63;;;12.10;;
72920;SDS011;61064;51.654;5.476;2023-08-24T09:06:41;19.40;;;12.27;;
72920;SDS011;61064;51.654;5.476;2023-08-24T09:09:07;19.83;;;11.85;;
72920;SDS011;61064;51.654;5.476;2023-08-24T09:11:33;19.67;;;11.90;;
72920;SDS011;61064;51.654;5.476;2023-08-24T09:13:58;17.63;;;11.80;;
72920;SDS011;61064;51.654;5.476;2023-08-24T09:16:24;19.37;;;12.03;;
72920;SDS011;61064;51.654;5.476;2023-08-24T09:18:54;18.63;;;11.90;;
72920;SDS011;61064;51.654;5.476;2023-08-24T09:21:20;19.63;;;12.50;;
72920;SDS011;61064;51.654;5.476;2023-08-24T09:23:55;18.20;;;11.50;;
72920;SDS011;61064;51.654;5.476;2023-08-24T09:26:27;15.95;;;10.93;;
72920;SDS011;61064;51.654;5.476;2023-08-24T09:28:54;18.15;;;10.65;;
72920;SDS011;61064;51.654;5.476;2023-08-24T09:31:19;17.23;;;10.77;;
72920;SDS011;61064;51.654;5.476;2023-08-24T09:33:45;17.23;;;11.37;;
72920;SDS011;61064;51.654;5.476;2023-08-24T09:36:13;18.27;;;10.73;;
72920;SDS011;61064;51.654;5.476;2023-08-24T09:38:45;19.17;;;11.37;;
72920;SDS011;61064;51.654;5.476;2023-08-24T09:41:11;17.95;;;10.30;;
72920;SDS011;61064;51.654;5.476;2023-08-24T09:43:36;16.60;;;10.60;;
72920;SDS011;61064;51.654;5.476;2023-08-24T09:46:02;17.47;;;10.53;;
72920;SDS011;61064;51.654;5.476;2023-08-24T09:48:29;18.03;;;10.80;;
72920;SDS011;61064;51.654;5.476;2023-08-24T09:50:56;19.10;;;11.25;;
72920;SDS011;61064;51.654;5.476;2023-08-24T09:53:22;21.40;;;11.55;;
72920;SDS011;61064;51.654;5.476;2023-08-24T09:55:53;20.33;;;10.80;;
72920;SDS011;61064;51.654;5.476;2023-08-24T09:58:24;19.55;;;11.88;;
72920;SDS011;61064;51.654;5.476;2023-08-24T10:00:50;16.87;;;11.03;;
72920;SDS011;61064;51.654;5.476;2023-08-24T10:03:20;16.27;;;10.55;;
72920;SDS011;61064;51.654;5.476;2023-08-24T10:05:50;15.70;;;10.52;;
72920;SDS011;61064;51.654;5.476;2023-08-24T10:08:20;18.85;;;10.82;;
72920;SDS011;61064;51.654;5.476;2023-08-24T10:10:51;19.45;;;11.68;;
72920;SDS011;61064;51.654;5.476;2023-08-24T10:13:20;17.43;;;11.20;;
72920;SDS011;61064;51.654;5.476;2023-08-24T10:15:51;17.38;;;11.88;;
72920;SDS011;61064;51.654;5.476;2023-08-24T10:18:18;17.67;;;11.60;;
72920;SDS011;61064;51.654;5.476;2023-08-24T10:20:49;16.70;;;11.07;;
72920;SDS011;61064;51.654;5.476;2023-08-24T10:23:15;17.20;;;10.52;;
72920;SDS011;61064;51.654;5.476;2023-08-24T10:25:41;17.07;;;10.67;;
72920;SDS011;61064;51.654;5.476;2023-08-24T10:28:09;15.48;;;9.90;;
72920;SDS011;61064;51.654;5.476;2023-08-24T10:30:39;15.40;;;10.05;;
72920;SDS011;61064;51.654;5.476;2023-08-24T10:33:08;16.83;;;10.00;;
72920;SDS011;61064;51.654;5.476;2023-08-24T10:35:36;17.25;;;10.70;;
72920;SDS011;61064;51.654;5.476;2023-08-24T10:38:03;17.00;;;10.17;;
72920;SDS011;61064;51.654;5.476;2023-08-24T10:40:31;19.13;;;10.88;;
72920;SDS011;61064;51.654;5.476;2023-08-24T10:42:56;18.90;;;10.65;;
72920;SDS011;61064;51.654;5.476;2023-08-24T10:45:27;17.80;;;10.90;;
72920;SDS011;61064;51.654;5.476;2023-08-24T10:48:30;20.45;;;11.38;;
72920;SDS011;61064;51.654;5.476;2023-08-24T10:53:56;17.40;;;11.18;;
72920;SDS011;61064;51.654;5.476;2023-08-24T10:56:39;18.83;;;11.73;;
72920;SDS011;61064;51.654;5.476;2023-08-24T11:01:58;17.60;;;10.70;;
72920;SDS011;61064;51.654;5.476;2023-08-24T11:04:29;16.40;;;11.37;;
72920;SDS011;61064;51.654;5.476;2023-08-24T11:06:58;19.20;;;11.38;;
72920;SDS011;61064;51.654;5.476;2023-08-24T11:09:27;22.13;;;12.07;;
72920;SDS011;61064;51.654;5.476;2023-08-24T11:12:11;19.60;;;11.23;;
72920;SDS011;61064;51.654;5.476;2023-08-24T11:14:48;18.67;;;11.23;;
72920;SDS011;61064;51.654;5.476;2023-08-24T11:17:20;18.42;;;11.05;;
72920;SDS011;61064;51.654;5.476;2023-08-24T11:19:50;18.23;;;11.57;;
72920;SDS011;61064;51.654;5.476;2023-08-24T11:22:24;17.87;;;11.00;;
72920;SDS011;61064;51.654;5.476;2023-08-24T11:24:53;18.63;;;11.35;;
72920;SDS011;61064;51.654;5.476;2023-08-24T11:27:20;14.93;;;11.27;;
72920;SDS011;61064;51.654;5.476;2023-08-24T11:29:46;17.60;;;11.45;;
72920;SDS011;61064;51.654;5.476;2023-08-24T11:32:11;16.67;;;10.70;;
72920;SDS011;61064;51.654;5.476;2023-08-24T11:34:40;25.50;;;10.80;;
72920;SDS011;61064;51.654;5.476;2023-08-24T11:37:05;14.77;;;9.70;;
72920;SDS011;61064;51.654;5.476;2023-08-24T11:39:31;15.82;;;8.82;;
72920;SDS011;61064;51.654;5.476;2023-08-24T11:41:59;14.67;;;7.60;;
72920;SDS011;61064;51.654;5.476;2023-08-24T11:44:25;15.25;;;8.43;;
72920;SDS011;61064;51.654;5.476;2023-08-24T11:46:51;17.55;;;8.27;;
72920;SDS011;61064;51.654;5.476;2023-08-24T11:49:16;16.33;;;7.30;;
72920;SDS011;61064;51.654;5.476;2023-08-24T11:51:42;12.23;;;6.75;;
72920;SDS011;61064;51.654;5.476;2023-08-24T11:54:11;12.90;;;6.33;;
72920;SDS011;61064;51.654;5.476;2023-08-24T11:56:42;13.82;;;5.72;;
72920;SDS011;61064;51.654;5.476;2023-08-24T11:59:12;14.32;;;5.70;;
72920;SDS011;61064;51.654;5.476;2023-08-24T12:01:39;10.98;;;5.32;;
72920;SDS011;61064;51.654;5.476;2023-08-24T12:04:06;12.47;;;6.00;;
72920;SDS011;61064;51.654;5.476;2023-08-24T12:06:31;13.40;;;5.82;;
72920;SDS011;61064;51.654;5.476;2023-08-24T12:08:57;12.67;;;5.90;;
72920;SDS011;61064;51.654;5.476;2023-08-24T12:11:22;12.33;;;5.50;;
72920;SDS011;61064;51.654;5.476;2023-08-24T12:13:50;10.30;;;6.10;;
72920;SDS011;61064;51.654;5.476;2023-08-24T12:16:18;12.70;;;5.80;;
72920;SDS011;61064;51.654;5.476;2023-08-24T12:18:49;11.93;;;6.30;;
72920;SDS011;61064;51.654;5.476;2023-08-24T12:21:16;12.52;;;6.00;;
72920;SDS011;61064;51.654;5.476;2023-08-24T12:23:41;11.17;;;5.77;;
72920;SDS011;61064;51.654;5.476;2023-08-24T12:26:07;11.60;;;5.57;;
72920;SDS011;61064;51.654;5.476;2023-08-24T12:28:33;11.73;;;5.70;;
72920;SDS011;61064;51.654;5.476;2023-08-24T12:30:59;12.50;;;6.00;;
72920;SDS011;61064;51.654;5.476;2023-08-24T12:33:29;13.50;;;6.20;;
72920;SDS011;61064;51.654;5.476;2023-08-24T12:35:56;11.57;;;4.63;;
72920;SDS011;61064;51.654;5.476;2023-08-24T12:38:23;10.57;;;5.10;;
72920;SDS011;61064;51.654;5.476;2023-08-24T12:40:49;13.33;;;5.00;;
72920;SDS011;61064;51.654;5.476;2023-08-24T12:43:15;13.15;;;5.30;;
72920;SDS011;61064;51.654;5.476;2023-08-24T12:45:40;12.97;;;5.57;;
72920;SDS011;61064;51.654;5.476;2023-08-24T12:48:06;11.65;;;5.72;;
72920;SDS011;61064;51.654;5.476;2023-08-24T12:50:34;10.88;;;5.22;;
72920;SDS011;61064;51.654;5.476;2023-08-24T12:53:00;13.57;;;5.57;;
72920;SDS011;61064;51.654;5.476;2023-08-24T12:55:28;11.75;;;5.00;;
72920;SDS011;61064;51.654;5.476;2023-08-24T12:57:54;9.85;;;5.22;;
72920;SDS011;61064;51.654;5.476;2023-08-24T13:00:22;11.40;;;5.03;;
72920;SDS011;61064;51.654;5.476;2023-08-24T13:02:48;9.80;;;5.30;;
72920;SDS011;61064;51.654;5.476;2023-08-24T13:05:15;13.55;;;5.55;;
72920;SDS011;61064;51.654;5.476;2023-08-24T13:07:40;10.67;;;5.30;;
72920;SDS011;61064;51.654;5.476;2023-08-24T13:10:06;11.77;;;5.17;;
72920;SDS011;61064;51.654;5.476;2023-08-24T13:12:32;11.53;;;5.43;;
72920;SDS011;61064;51.654;5.476;2023-08-24T13:14:58;11.50;;;4.97;;
72920;SDS011;61064;51.654;5.476;2023-08-24T13:17:23;13.73;;;5.47;;
72920;SDS011;61064;51.654;5.476;2023-08-24T13:19:49;13.88;;;5.03;;
72920;SDS011;61064;51.654;5.476;2023-08-24T13:22:14;11.97;;;4.70;;
72920;SDS011;61064;51.654;5.476;2023-08-24T13:24:40;9.50;;;4.67;;
72920;SDS011;61064;51.654;5.476;2023-08-24T13:27:07;10.63;;;4.77;;
72920;SDS011;61064;51.654;5.476;2023-08-24T13:29:35;11.32;;;4.90;;
72920;SDS011;61064;51.654;5.476;2023-08-24T13:32:01;9.43;;;4.40;;
72920;SDS011;61064;51.654;5.476;2023-08-24T13:34:26;11.00;;;3.80;;
72920;SDS011;61064;51.654;5.476;2023-08-24T13:36:52;9.00;;;3.80;;
72920;SDS011;61064;51.654;5.476;2023-08-24T13:39:17;12.93;;;4.20;;
72920;SDS011;61064;51.654;5.476;2023-08-24T13:41:43;10.13;;;4.32;;
72920;SDS011;61064;51.654;5.476;2023-08-24T13:44:09;11.33;;;4.00;;
72920;SDS011;61064;51.654;5.476;2023-08-24T13:46:34;9.67;;;3.70;;
72920;SDS011;61064;51.654;5.476;2023-08-24T13:48:59;10.07;;;3.97;;
72920;SDS011;61064;51.654;5.476;2023-08-24T13:51:25;10.53;;;4.10;;
72920;SDS011;61064;51.654;5.476;2023-08-24T13:53:50;12.33;;;4.27;;
72920;SDS011;61064;51.654;5.476;2023-08-24T13:56:15;9.80;;;3.57;;
72920;SDS011;61064;51.654;5.476;2023-08-24T13:58:41;9.97;;;4.10;;
72920;SDS011;61064;51.654;5.476;2023-08-24T14:01:06;11.07;;;3.80;;
72920;SDS011;61064;51.654;5.476;2023-08-24T14:03:32;12.37;;;3.80;;
72920;SDS011;61064;51.654;5.476;2023-08-24T14:05:57;8.33;;;3.40;;
72920;SDS011;61064;51.654;5.476;2023-08-24T14:08:23;11.85;;;3.80;;
72920;SDS011;61064;51.654;5.476;2023-08-24T14:10:49;12.23;;;3.30;;
72920;SDS011;61064;51.654;5.476;2023-08-24T14:13:14;10.98;;;3.70;;
72920;SDS011;61064;51.654;5.476;2023-08-24T14:15:40;9.27;;;3.40;;
72920;SDS011;61064;51.654;5.476;2023-08-24T14:18:06;8.52;;;3.42;;
72920;SDS011;61064;51.654;5.476;2023-08-24T14:20:31;9.77;;;3.58;;
72920;SDS011;61064;51.654;5.476;2023-08-24T14:22:57;8.43;;;3.10;;
72920;SDS011;61064;51.654;5.476;2023-08-24T14:25:22;12.73;;;3.10;;
72920;SDS011;61064;51.654;5.476;2023-08-24T14:27:48;8.00;;;2.70;;
72920;SDS011;61064;51.654;5.476;2023-08-24T14:30:13;7.43;;;2.40;;
72920;SDS011;61064;51.654;5.476;2023-08-24T14:32:39;11.30;;;2.60;;
72920;SDS011;61064;51.654;5.476;2023-08-24T14:35:04;7.83;;;2.50;;
72920;SDS011;61064;51.654;5.476;2023-08-24T14:37:30;6.43;;;2.17;;
72920;SDS011;61064;51.654;5.476;2023-08-24T14:39:57;8.15;;;2.30;;
72920;SDS011;61064;51.654;5.476;2023-08-24T14:42:23;9.03;;;2.27;;